createdAt,value
2023-03-29T00:02:21.211Z,100066.31
2023-03-29T00:04:48.862Z,100061.91
2023-03-29T00:07:16.727Z,100053.03
2023-03-29T00:09:45.079Z,100045.94
2023-03-29T00:12:12.836Z,100045.00
2023-03-29T00:14:40.646Z,100048.41
2023-03-29T00:17:08.340Z,100039.56
2023-03-29T00:19:37.242Z,100037.66
2023-03-29T00:22:06.008Z,100031.44
2023-03-29T00:24:33.618Z,100032.31
2023-03-29T00:27:01.324Z,100021.81
2023-03-29T00:29:28.906Z,100025.41
2023-03-29T00:31:57.797Z,100022.00
2023-03-29T00:34:26.451Z,100024.72
2023-03-29T00:36:58.102Z,100018.78
2023-03-29T00:39:25.891Z,100011.88
2023-03-29T00:41:53.483Z,100014.63
2023-03-29T00:44:21.376Z,100020.81
2023-03-29T00:46:49.128Z,100008.41
2023-03-29T00:49:16.843Z,100011.78
2023-03-29T00:51:44.442Z,100002.94
2023-03-29T00:54:15.078Z,99998.50
2023-03-29T00:56:43.920Z,100001.97
2023-03-29T00:59:11.831Z,99994.94
2023-03-29T01:01:42.316Z,99990.31
2023-03-29T01:04:18.054Z,99985.78
2023-03-29T01:06:46.109Z,99990.78
2023-03-29T01:09:13.871Z,99987.22
2023-03-29T01:11:42.192Z,99985.22
2023-03-29T01:14:09.847Z,99988.75
2023-03-29T01:16:38.428Z,99984.22
2023-03-29T01:19:08.030Z,99982.31
2023-03-29T01:21:36.466Z,99979.59
2023-03-29T01:24:07.042Z,99970.69
2023-03-29T01:26:34.832Z,99958.13
2023-03-29T01:29:02.537Z,99968.50
2023-03-29T01:31:30.559Z,99968.34
2023-03-29T01:33:58.130Z,99956.63
2023-03-29T01:36:27.321Z,99960.78
2023-03-29T01:38:55.254Z,99954.44
2023-03-29T01:41:23.055Z,99952.47
2023-03-29T01:43:51.407Z,99945.31
2023-03-29T01:46:19.117Z,99937.19
2023-03-29T01:48:46.932Z,99933.59
2023-03-29T01:51:14.609Z,99929.06
2023-03-29T01:53:42.673Z,99934.16
2023-03-29T01:56:12.033Z,99917.44
2023-03-29T01:58:40.145Z,99925.28
2023-03-29T02:01:10.041Z,99925.22
2023-03-29T02:03:42.407Z,99912.00
2023-03-29T02:06:10.368Z,99912.81
2023-03-29T02:08:39.057Z,99902.25
2023-03-29T02:11:07.760Z,99898.66
2023-03-29T02:13:35.392Z,99897.72
2023-03-29T02:16:03.342Z,99896.78
2023-03-29T02:18:31.517Z,99887.91
2023-03-29T02:20:59.746Z,99879.03
2023-03-29T02:23:27.517Z,99884.31
2023-03-29T02:25:55.097Z,99886.09
2023-03-29T02:28:22.655Z,99887.81
2023-03-29T02:30:50.265Z,99892.97
2023-03-29T02:33:18.220Z,99884.00
2023-03-29T02:35:45.844Z,99894.50
2023-03-29T02:38:14.805Z,99882.91
2023-03-29T02:40:42.817Z,99888.94
2023-03-29T02:43:11.624Z,99891.47
2023-03-29T02:45:39.613Z,99895.81
2023-03-29T02:48:07.623Z,99880.78
2023-03-29T02:50:35.342Z,99878.91
2023-03-29T02:53:02.925Z,99879.75
2023-03-29T02:55:31.443Z,99860.28
2023-03-29T02:57:59.381Z,99857.47
2023-03-29T03:00:27.135Z,99840.66
2023-03-29T03:02:55.377Z,99844.03
2023-03-29T03:05:23.980Z,99843.00
2023-03-29T03:07:52.105Z,99855.25
2023-03-29T03:10:20.138Z,99835.72
2023-03-29T03:12:47.762Z,99839.94
2023-03-29T03:15:15.587Z,99835.41
2023-03-29T03:17:43.271Z,99841.53
2023-03-29T03:20:13.269Z,99825.56
2023-03-29T03:22:41.295Z,99829.91
2023-03-29T03:25:10.780Z,99833.41
2023-03-29T03:27:38.681Z,99832.44
2023-03-29T03:30:06.667Z,99820.09
2023-03-29T03:32:34.550Z,99821.78
2023-03-29T03:35:02.559Z,99820.91
2023-03-29T03:37:30.127Z,99825.16
2023-03-29T03:39:57.719Z,99828.69
2023-03-29T03:42:25.455Z,99824.13
2023-03-29T03:44:53.025Z,99835.44
2023-03-29T03:47:20.992Z,99817.66
2023-03-29T03:49:48.542Z,99833.34
2023-03-29T03:52:16.458Z,99825.41
2023-03-29T03:54:47.039Z,99824.25
2023-03-29T03:57:15.256Z,99836.44
2023-03-29T03:59:43.267Z,99838.03
2023-03-29T04:02:11.257Z,99827.22
2023-03-29T04:04:39.542Z,99831.38
2023-03-29T04:07:07.101Z,99828.34
2023-03-29T04:09:36.563Z,99820.19
2023-03-29T04:12:04.505Z,99820.81
2023-03-29T04:14:32.537Z,99830.38
2023-03-29T04:17:00.214Z,99832.78
2023-03-29T04:19:27.818Z,99831.84
2023-03-29T04:21:55.618Z,99828.22
2023-03-29T04:24:23.283Z,99833.34
2023-03-29T04:26:50.833Z,99828.03
2023-03-29T04:29:18.435Z,99827.09
2023-03-29T04:31:46.471Z,99823.47
2023-03-29T04:34:14.149Z,99830.59
2023-03-29T04:36:42.113Z,99818.28
2023-03-29T04:39:10.333Z,99821.78
2023-03-29T04:41:37.937Z,99820.28
2023-03-29T04:44:05.480Z,99816.91
2023-03-29T04:46:33.432Z,99822.19
2023-03-29T04:49:01.618Z,99810.97
2023-03-29T04:51:29.220Z,99814.56
2023-03-29T04:53:57.196Z,99809.59
2023-03-29T04:56:24.750Z,99823.88
2023-03-29T04:58:52.579Z,99809.03
2023-03-29T05:01:20.599Z,99811.91
2023-03-29T05:03:48.228Z,99803.97
2023-03-29T05:06:15.863Z,99799.63
2023-03-29T05:08:43.578Z,99809.47
2023-03-29T05:11:11.696Z,99798.13
2023-03-29T05:13:39.911Z,99805.09
2023-03-29T05:16:08.049Z,99783.94
2023-03-29T05:18:35.844Z,99794.53
2023-03-29T05:21:04.468Z,99795.28
2023-03-29T05:23:32.386Z,99799.53
2023-03-29T05:26:00.381Z,99792.44
2023-03-29T05:28:27.989Z,99801.97
2023-03-29T05:30:55.734Z,99801.75
2023-03-29T05:33:23.646Z,99799.75
2023-03-29T05:35:51.675Z,99796.03
2023-03-29T05:38:20.096Z,99798.38
2023-03-29T05:40:47.726Z,99795.63
2023-03-29T05:43:15.405Z,99801.56
2023-03-29T05:45:43.446Z,99797.88
2023-03-29T05:48:11.392Z,99800.28
2023-03-29T05:50:39.415Z,99798.28
2023-03-29T05:53:07.070Z,99805.28
2023-03-29T05:55:34.769Z,99805.09
2023-03-29T05:58:02.406Z,99809.44
2023-03-29T06:00:32.189Z,99812.81
2023-03-29T06:03:13.304Z,99807.50
2023-03-29T06:05:47.740Z,99802.44
2023-03-29T06:08:16.912Z,99813.22
2023-03-29T06:10:45.580Z,99814.19
2023-03-29T06:13:13.374Z,99809.75
2023-03-29T06:15:41.112Z,99810.56
2023-03-29T06:18:09.946Z,99804.44
2023-03-29T06:20:37.671Z,99803.50
2023-03-29T06:23:05.676Z,99797.25
2023-03-29T06:25:34.631Z,99801.47
2023-03-29T06:28:02.602Z,99804.78
2023-03-29T06:30:30.267Z,99799.16
2023-03-29T06:32:58.048Z,99794.38
2023-03-29T06:35:26.360Z,99807.31
2023-03-29T06:37:54.932Z,99803.50
2023-03-29T06:40:23.001Z,99796.19
2023-03-29T06:42:57.979Z,99803.81
2023-03-29T06:45:27.475Z,99798.31
2023-03-29T06:47:57.563Z,99800.50
2023-03-29T06:50:25.903Z,99798.50
2023-03-29T06:52:53.728Z,99807.84
2023-03-29T06:55:22.867Z,99802.31
2023-03-29T06:57:50.702Z,99801.13
2023-03-29T07:00:19.829Z,99807.91
2023-03-29T07:02:47.639Z,99809.50
2023-03-29T07:05:16.339Z,99806.75
2023-03-29T07:07:57.036Z,99812.69
2023-03-29T07:10:26.252Z,99818.59
2023-03-29T07:12:54.142Z,99812.13
2023-03-29T07:15:22.085Z,99816.75
2023-03-29T07:17:49.843Z,99811.75
2023-03-29T07:20:17.951Z,99810.28
2023-03-29T07:22:46.222Z,99807.69
2023-03-29T07:25:14.090Z,99812.34
2023-03-29T07:27:42.382Z,99810.81
2023-03-29T07:30:11.981Z,99804.19
2023-03-29T07:32:40.210Z,99808.09
2023-03-29T07:35:07.926Z,99798.97
2023-03-29T07:37:36.673Z,99797.75
2023-03-29T07:40:09.231Z,99807.94
2023-03-29T07:42:37.865Z,99794.31
2023-03-29T07:45:06.124Z,99795.78
2023-03-29T07:47:34.574Z,99797.13
2023-03-29T07:50:02.462Z,99804.63
2023-03-29T07:52:30.308Z,99807.81
2023-03-29T07:54:58.251Z,99809.97
2023-03-29T07:57:26.797Z,99809.50
2023-03-29T07:59:55.033Z,99806.38
2023-03-29T08:02:22.888Z,99811.47
2023-03-29T08:04:50.876Z,99818.25
2023-03-29T08:07:20.156Z,99814.88
2023-03-29T08:09:48.189Z,99802.69
2023-03-29T08:12:16.981Z,99809.09
2023-03-29T08:14:44.906Z,99812.16
2023-03-29T08:17:12.833Z,99811.78
2023-03-29T08:19:41.119Z,99813.81
2023-03-29T08:22:19.127Z,99811.56
2023-03-29T08:24:46.820Z,99805.50
2023-03-29T08:27:14.847Z,99794.13
2023-03-29T08:29:42.802Z,99797.78
2023-03-29T08:32:10.846Z,99784.59
2023-03-29T08:34:39.242Z,99782.25
2023-03-29T08:37:07.080Z,99773.56
2023-03-29T08:39:34.825Z,99766.97
2023-03-29T08:42:02.738Z,99760.50
2023-03-29T08:44:30.855Z,99766.50
2023-03-29T08:46:59.649Z,99772.25
2023-03-29T08:49:27.511Z,99780.31
2023-03-29T08:51:55.407Z,99792.41
2023-03-29T08:54:25.215Z,99784.88
2023-03-29T08:56:53.009Z,99779.75
2023-03-29T08:59:21.931Z,99776.16
2023-03-29T09:01:49.935Z,99776.19
2023-03-29T09:04:19.124Z,99782.47
2023-03-29T09:06:47.930Z,99786.03
2023-03-29T09:09:16.040Z,99773.28
2023-03-29T09:11:44.088Z,99774.97
2023-03-29T09:14:11.971Z,99778.34
2023-03-29T09:16:39.821Z,99779.78
2023-03-29T09:19:08.203Z,99780.19
2023-03-29T09:21:36.227Z,99781.94
2023-03-29T09:24:04.528Z,99784.41
2023-03-29T09:26:32.756Z,99777.91
2023-03-29T09:29:00.733Z,99787.84
2023-03-29T09:31:29.000Z,99787.13
2023-03-29T09:33:56.841Z,99794.56
2023-03-29T09:36:25.333Z,99794.66
2023-03-29T09:38:54.609Z,99793.00
2023-03-29T09:41:22.762Z,99805.59
2023-03-29T09:43:50.616Z,99797.34
2023-03-29T09:46:18.470Z,99797.91
2023-03-29T09:48:46.936Z,99794.44
2023-03-29T09:51:15.222Z,99797.22
2023-03-29T09:53:43.597Z,99791.88
2023-03-29T09:56:11.454Z,99789.09
2023-03-29T09:58:39.402Z,99790.66
2023-03-29T10:01:09.328Z,99787.84
2023-03-29T10:03:37.354Z,99783.84
2023-03-29T10:06:05.570Z,99787.50
2023-03-29T10:08:33.591Z,99790.28
2023-03-29T10:11:02.050Z,99786.94
2023-03-29T10:13:31.274Z,99767.06
2023-03-29T10:15:59.538Z,99770.91
2023-03-29T10:18:28.027Z,99772.53
2023-03-29T10:20:55.859Z,99769.34
2023-03-29T10:23:23.770Z,99769.66
2023-03-29T10:25:52.648Z,99771.47
2023-03-29T10:28:21.526Z,99761.34
2023-03-29T10:30:49.610Z,99764.28
2023-03-29T10:33:17.652Z,99766.59
2023-03-29T10:35:45.800Z,99759.25
2023-03-29T10:38:15.163Z,99755.47
2023-03-29T10:40:43.077Z,99760.66
2023-03-29T10:43:11.154Z,99762.38
2023-03-29T10:45:38.965Z,99768.84
2023-03-29T10:48:08.122Z,99760.66
2023-03-29T10:50:39.148Z,99767.97
2023-03-29T10:53:07.003Z,99763.50
2023-03-29T10:55:35.200Z,99772.34
2023-03-29T10:58:03.102Z,99761.81
2023-03-29T11:00:31.271Z,99758.28
2023-03-29T11:02:59.744Z,99756.91
2023-03-29T11:05:27.924Z,99744.91
2023-03-29T11:07:55.792Z,99753.00
2023-03-29T11:10:25.023Z,99747.88
2023-03-29T11:12:53.185Z,99737.91
2023-03-29T11:15:22.083Z,99730.28
2023-03-29T11:17:51.175Z,99735.31
2023-03-29T11:20:19.209Z,99728.75
2023-03-29T11:22:47.983Z,99727.09
2023-03-29T11:25:16.326Z,99719.06
2023-03-29T11:27:44.485Z,99717.91
2023-03-29T11:30:12.708Z,99715.13
2023-03-29T11:32:40.631Z,99710.66
2023-03-29T11:35:08.722Z,99714.19
2023-03-29T11:37:36.689Z,99708.34
2023-03-29T11:40:05.843Z,99712.63
2023-03-29T11:42:33.733Z,99710.66
2023-03-29T11:45:02.107Z,99706.78
2023-03-29T11:47:30.034Z,99712.00
2023-03-29T11:49:57.876Z,99706.50
2023-03-29T11:52:26.493Z,99708.91
2023-03-29T11:54:54.838Z,99708.41
2023-03-29T11:57:23.017Z,99710.84
2023-03-29T11:59:50.882Z,99707.97
2023-03-29T12:02:18.712Z,99698.69
2023-03-29T12:04:47.080Z,99703.88
2023-03-29T12:07:15.267Z,99694.63
2023-03-29T12:09:43.154Z,99684.03
2023-03-29T12:12:11.220Z,99684.47
2023-03-29T12:14:39.058Z,99681.13
2023-03-29T12:17:08.085Z,99670.59
2023-03-29T12:19:40.270Z,99660.00
2023-03-29T12:22:09.708Z,99659.16
2023-03-29T12:24:37.590Z,99663.53
2023-03-29T12:27:05.616Z,99659.53
2023-03-29T12:29:34.535Z,99666.22
2023-03-29T12:32:02.710Z,99667.66
2023-03-29T12:34:31.324Z,99655.56
2023-03-29T12:37:00.869Z,99653.31
2023-03-29T12:39:29.326Z,99643.13
2023-03-29T12:41:57.935Z,99660.81
2023-03-29T12:44:25.841Z,99650.56
2023-03-29T12:46:53.895Z,99656.69
2023-03-29T12:49:21.858Z,99655.34
2023-03-29T12:51:49.843Z,99660.31
2023-03-29T12:54:18.896Z,99653.34
2023-03-29T12:56:46.773Z,99652.38
2023-03-29T12:59:14.722Z,99656.50
2023-03-29T13:01:42.936Z,99644.56
2023-03-29T13:04:10.840Z,99630.97
2023-03-29T13:06:40.165Z,99624.94
2023-03-29T13:09:08.425Z,99624.28
2023-03-29T13:11:36.174Z,99625.84
2023-03-29T13:14:05.051Z,99638.94
2023-03-29T13:16:33.093Z,99631.53
2023-03-29T13:19:02.325Z,99633.00
2023-03-29T13:21:30.210Z,99629.78
2023-03-29T13:23:58.252Z,99643.69
2023-03-29T13:26:27.326Z,99636.09
2023-03-29T13:28:57.265Z,99645.25
2023-03-29T13:31:27.232Z,99648.66
2023-03-29T13:33:55.614Z,99646.69
2023-03-29T13:36:24.004Z,99653.69
2023-03-29T13:38:52.106Z,99654.47
2023-03-29T13:41:20.144Z,99660.94
2023-03-29T13:43:49.000Z,99656.53
2023-03-29T13:46:17.064Z,99646.09
2023-03-29T13:48:44.884Z,99646.94
2023-03-29T13:51:12.762Z,99643.56
2023-03-29T13:53:41.403Z,99645.06
2023-03-29T13:56:09.822Z,99634.81
2023-03-29T13:58:38.093Z,99623.72
2023-03-29T14:01:06.669Z,99609.81
2023-03-29T14:03:34.587Z,99606.13
2023-03-29T14:06:02.695Z,99613.69
2023-03-29T14:08:32.381Z,99618.44
2023-03-29T14:11:01.205Z,99613.56
2023-03-29T14:13:29.094Z,99615.53
2023-03-29T14:15:56.991Z,99613.53
2023-03-29T14:18:24.726Z,99612.81
2023-03-29T14:20:54.406Z,99604.44
2023-03-29T14:23:22.394Z,99595.34
2023-03-29T14:25:50.248Z,99592.66
2023-03-29T14:28:18.063Z,99594.19
2023-03-29T14:30:47.023Z,99589.97
2023-03-29T14:33:15.483Z,99580.03
2023-03-29T14:35:43.486Z,99571.50
2023-03-29T14:38:11.436Z,99575.53
2023-03-29T14:40:39.386Z,99572.53
2023-03-29T14:43:08.185Z,99566.19
2023-03-29T14:45:36.517Z,99544.03
2023-03-29T14:48:04.494Z,99550.56
2023-03-29T14:50:32.559Z,99551.91
2023-03-29T14:53:00.937Z,99555.75
2023-03-29T14:55:28.836Z,99545.00
2023-03-29T14:57:56.975Z,99555.75
2023-03-29T15:00:26.633Z,99553.25
2023-03-29T15:02:54.575Z,99547.38
2023-03-29T15:05:24.920Z,99554.94
2023-03-29T15:07:56.483Z,99540.78
2023-03-29T15:10:25.118Z,99544.31
2023-03-29T15:12:53.119Z,99533.72
2023-03-29T15:15:21.234Z,99525.81
2023-03-29T15:17:52.115Z,99529.50
2023-03-29T15:20:21.649Z,99526.81
2023-03-29T15:22:49.686Z,99518.09
2023-03-29T15:25:17.885Z,99514.06
2023-03-29T15:27:46.000Z,99518.09
2023-03-29T15:30:13.836Z,99514.41
2023-03-29T15:32:42.185Z,99511.91
2023-03-29T15:35:11.410Z,99509.03
2023-03-29T15:37:39.290Z,99505.19
2023-03-29T15:40:09.999Z,99499.31
2023-03-29T15:42:38.009Z,99488.22
2023-03-29T15:45:06.577Z,99487.69
2023-03-29T15:47:36.133Z,99472.38
2023-03-29T15:50:04.499Z,99466.53
2023-03-29T15:52:32.858Z,99471.59
2023-03-29T15:55:00.773Z,99458.00
2023-03-29T15:57:29.074Z,99463.03
2023-03-29T15:59:58.117Z,99452.81
2023-03-29T16:02:26.344Z,99451.09
2023-03-29T16:04:54.408Z,99446.59
2023-03-29T16:07:22.249Z,99443.91
2023-03-29T16:09:50.979Z,99444.56
2023-03-29T16:12:19.620Z,99439.06
2023-03-29T16:14:47.599Z,99441.22
2023-03-29T16:17:16.188Z,99430.66
2023-03-29T16:19:44.220Z,99433.50
2023-03-29T16:22:12.029Z,99435.50
2023-03-29T16:24:40.214Z,99435.84
2023-03-29T16:27:08.150Z,99428.28
2023-03-29T16:29:36.227Z,99434.13
2023-03-29T16:32:06.786Z,99420.22
2023-03-29T16:34:36.282Z,99424.25
2023-03-29T16:37:05.220Z,99420.19
2023-03-29T16:39:33.102Z,99412.50
2023-03-29T16:42:01.356Z,99405.75
2023-03-29T16:44:29.202Z,99409.47
2023-03-29T16:46:58.284Z,99417.00
2023-03-29T16:49:26.855Z,99405.59
2023-03-29T16:51:54.705Z,99403.78
2023-03-29T16:54:26.049Z,99409.97
2023-03-29T16:56:54.144Z,99402.75
2023-03-29T16:59:22.072Z,99405.44
2023-03-29T17:01:50.058Z,99399.22
2023-03-29T17:04:18.071Z,99395.88
2023-03-29T17:06:45.969Z,99399.72
2023-03-29T17:09:13.865Z,99391.13
2023-03-29T17:11:41.981Z,99393.16
2023-03-29T17:14:10.741Z,99388.94
2023-03-29T17:16:38.994Z,99389.97
2023-03-29T17:19:06.920Z,99378.72
2023-03-29T17:21:34.708Z,99379.88
2023-03-29T17:24:02.680Z,99385.41
2023-03-29T17:26:30.835Z,99374.00
2023-03-29T17:28:58.706Z,99380.38
2023-03-29T17:31:26.610Z,99375.16
2023-03-29T17:33:54.727Z,99377.84
2023-03-29T17:36:24.385Z,99366.28
2023-03-29T17:38:55.238Z,99371.81
2023-03-29T17:41:23.142Z,99367.63
2023-03-29T17:43:51.191Z,99366.94
2023-03-29T17:46:22.947Z,99370.78
2023-03-29T17:48:51.819Z,99369.28
2023-03-29T17:51:19.884Z,99378.47
2023-03-29T17:53:47.882Z,99374.13
2023-03-29T17:56:16.368Z,99369.91
2023-03-29T17:58:44.314Z,99365.56
2023-03-29T18:01:12.589Z,99374.63
2023-03-29T18:03:40.686Z,99368.25
2023-03-29T18:06:08.621Z,99365.56
2023-03-29T18:08:36.400Z,99367.25
2023-03-29T18:11:04.345Z,99370.94
2023-03-29T18:13:32.186Z,99365.56
2023-03-29T18:16:01.002Z,99366.25
2023-03-29T18:18:29.062Z,99361.56
2023-03-29T18:20:56.940Z,99361.56
2023-03-29T18:23:24.795Z,99339.09
2023-03-29T18:25:52.637Z,99330.06
2023-03-29T18:28:21.117Z,99326.72
2023-03-29T18:30:49.036Z,99326.03
2023-03-29T18:33:17.246Z,99327.03
2023-03-29T18:35:48.714Z,99327.22
2023-03-29T18:38:16.592Z,99328.03
2023-03-29T18:40:45.428Z,99335.41
2023-03-29T18:43:13.822Z,99323.16
2023-03-29T18:45:41.713Z,99325.03
2023-03-29T18:48:09.817Z,99325.84
2023-03-29T18:50:37.858Z,99320.47
2023-03-29T18:53:06.450Z,99326.69
2023-03-29T18:55:34.360Z,99325.03
2023-03-29T18:58:02.246Z,99324.50
2023-03-29T19:00:30.146Z,99341.91
2023-03-29T19:02:58.100Z,99332.69
2023-03-29T19:05:28.248Z,99334.00
2023-03-29T19:07:56.630Z,99332.00
2023-03-29T19:10:25.062Z,99324.25
2023-03-29T19:12:52.827Z,99312.03
2023-03-29T19:15:20.688Z,99316.41
2023-03-29T19:17:49.341Z,99316.41
2023-03-29T19:20:17.408Z,99313.03
2023-03-29T19:22:45.225Z,99304.47
2023-03-29T19:25:13.229Z,99301.78
2023-03-29T19:27:41.749Z,99301.78
2023-03-29T19:30:09.861Z,99285.72
2023-03-29T19:32:38.041Z,99289.41
2023-03-29T19:35:05.943Z,99288.72
2023-03-29T19:37:33.726Z,99292.09
2023-03-29T19:40:01.475Z,99290.56
2023-03-29T19:42:29.710Z,99284.69
2023-03-29T19:44:57.679Z,99273.31
2023-03-29T19:47:25.593Z,99279.66
2023-03-29T19:49:53.512Z,99276.31
2023-03-29T19:52:24.141Z,99267.28
2023-03-29T19:54:52.457Z,99268.94
2023-03-29T19:57:20.462Z,99272.63
2023-03-29T19:59:48.363Z,99253.88
2023-03-29T20:02:16.297Z,99260.25
2023-03-29T20:04:44.090Z,99259.53
2023-03-29T20:07:13.043Z,99251.84
2023-03-29T20:09:45.120Z,99249.66
2023-03-29T20:12:13.156Z,99253.50
2023-03-29T20:14:43.465Z,99247.31
2023-03-29T20:17:11.385Z,99242.13
2023-03-29T20:19:44.639Z,99246.81
2023-03-29T20:22:12.565Z,99234.22
2023-03-29T20:24:40.490Z,99233.56
2023-03-29T20:27:08.941Z,99220.47
2023-03-29T20:29:36.801Z,99225.69
2023-03-29T20:32:04.915Z,99225.84
2023-03-29T20:34:32.827Z,99227.69
2023-03-29T20:37:02.352Z,99221.66
2023-03-29T20:39:31.756Z,99231.53
2023-03-29T20:42:00.780Z,99230.72
2023-03-29T20:44:28.858Z,99226.16
2023-03-29T20:47:03.590Z,99228.03
2023-03-29T20:49:37.693Z,99228.97
2023-03-29T20:52:06.544Z,99226.63
2023-03-29T20:54:35.341Z,99222.28
2023-03-29T20:57:03.180Z,99222.28
2023-03-29T20:59:31.154Z,99216.06
2023-03-29T21:02:00.504Z,99222.28
2023-03-29T21:04:28.437Z,99207.88
2023-03-29T21:06:56.751Z,99222.59
2023-03-29T21:09:25.652Z,99210.19
2023-03-29T21:11:53.997Z,99210.19
2023-03-29T21:14:22.480Z,99200.34
2023-03-29T21:16:51.096Z,99188.09
2023-03-29T21:19:19.651Z,99182.09
2023-03-29T21:21:52.316Z,99187.75
2023-03-29T21:24:20.114Z,99189.25
2023-03-29T21:26:47.934Z,99187.06
2023-03-29T21:29:15.680Z,99177.84
2023-03-29T21:31:43.873Z,99177.84
2023-03-29T21:34:12.040Z,99171.34
2023-03-29T21:36:40.024Z,99167.66
2023-03-29T21:39:07.811Z,99164.31
2023-03-29T21:41:35.615Z,99165.97
2023-03-29T21:44:03.825Z,99163.13
2023-03-29T21:46:31.704Z,99152.25
2023-03-29T21:48:59.446Z,99151.44
2023-03-29T21:51:27.304Z,99145.22
2023-03-29T21:53:55.106Z,99137.19
2023-03-29T21:56:24.920Z,99133.66
2023-03-29T21:58:52.706Z,99127.00
2023-03-29T22:01:20.495Z,99122.97
2023-03-29T22:03:48.310Z,99118.34
2023-03-29T22:06:16.158Z,99121.53
2023-03-29T22:08:44.366Z,99118.66
2023-03-29T22:11:14.015Z,99118.50
2023-03-29T22:13:41.664Z,99114.66
2023-03-29T22:16:09.526Z,99110.63
2023-03-29T22:18:43.958Z,99110.81
2023-03-29T22:21:13.353Z,99106.47
2023-03-29T22:23:41.085Z,99099.59
2023-03-29T22:26:08.800Z,99094.56
2023-03-29T22:28:36.659Z,99096.41
2023-03-29T22:31:04.696Z,99109.97
2023-03-29T22:33:32.849Z,99104.09
2023-03-29T22:36:00.774Z,99109.78
2023-03-29T22:38:28.982Z,99115.28
2023-03-29T22:40:56.618Z,99126.16
2023-03-29T22:43:24.510Z,99123.66
2023-03-29T22:45:52.288Z,99112.09
2023-03-29T22:48:19.895Z,99105.44
2023-03-29T22:50:47.614Z,99109.44
2023-03-29T22:53:15.325Z,99110.31
2023-03-29T22:55:43.055Z,99093.38
2023-03-29T22:58:11.199Z,99101.25
2023-03-29T23:00:39.220Z,99098.94
2023-03-29T23:03:07.051Z,99088.72
2023-03-29T23:05:34.760Z,99094.56
2023-03-29T23:08:02.446Z,99078.19
2023-03-29T23:10:30.955Z,99078.88
2023-03-29T23:13:08.645Z,99071.22
2023-03-29T23:15:36.224Z,99066.16
2023-03-29T23:18:04.824Z,99064.19
2023-03-29T23:20:33.393Z,99077.72
2023-03-29T23:23:01.320Z,99073.38
2023-03-29T23:25:28.935Z,99059.84
2023-03-29T23:27:56.845Z,99060.66
2023-03-29T23:30:24.434Z,99065.84
2023-03-29T23:32:52.899Z,99065.84
2023-03-29T23:35:20.624Z,99052.13
2023-03-29T23:37:48.241Z,99057.63
2023-03-29T23:40:15.986Z,99064.50
2023-03-29T23:42:44.002Z,99057.31
2023-03-29T23:45:12.833Z,99054.94
2023-03-29T23:47:40.486Z,99050.59
2023-03-29T23:50:09.582Z,99056.81
2023-03-29T23:52:37.251Z,99047.94
2023-03-29T23:55:04.841Z,99051.59
2023-03-29T23:57:35.496Z,99054.28
